createdAt,value
2023-04-19T00:00:15.941Z,11.29
2023-04-19T00:02:43.208Z,11.29
2023-04-19T00:05:10.201Z,11.25
2023-04-19T00:07:36.769Z,11.18
2023-04-19T00:10:03.779Z,11.13
2023-04-19T00:12:30.349Z,11.11
2023-04-19T00:14:57.383Z,11.08
2023-04-19T00:17:24.088Z,11.10
2023-04-19T00:19:53.430Z,11.04
2023-04-19T00:22:19.997Z,11.05
2023-04-19T00:24:46.768Z,10.99
2023-04-19T00:27:13.274Z,10.93
2023-04-19T00:29:39.822Z,10.92
2023-04-19T00:32:06.676Z,10.91
2023-04-19T00:34:33.237Z,10.82
2023-04-19T00:37:01.302Z,10.75
2023-04-19T00:39:27.817Z,10.71
2023-04-19T00:41:54.407Z,10.68
2023-04-19T00:44:20.940Z,10.65
2023-04-19T00:46:48.519Z,10.67
2023-04-19T00:49:16.273Z,10.63
2023-04-19T00:51:46.674Z,10.62
2023-04-19T00:54:15.072Z,10.60
2023-04-19T00:56:41.784Z,10.56
2023-04-19T00:59:10.779Z,10.54
2023-04-19T01:01:40.872Z,10.50
2023-04-19T01:04:08.442Z,10.51
2023-04-19T01:06:36.451Z,10.50
2023-04-19T01:09:03.092Z,10.45
2023-04-19T01:11:29.636Z,10.45
2023-04-19T01:13:57.856Z,10.36
2023-04-19T01:16:28.010Z,10.38
2023-04-19T01:18:54.842Z,10.38
2023-04-19T01:21:21.696Z,10.31
2023-04-19T01:23:48.284Z,10.32
2023-04-19T01:26:14.863Z,10.31
2023-04-19T01:28:41.418Z,10.29
2023-04-19T01:31:07.955Z,10.34
2023-04-19T01:33:36.850Z,10.39
2023-04-19T01:36:06.632Z,10.40
2023-04-19T01:38:34.487Z,10.31
2023-04-19T01:41:02.201Z,10.34
2023-04-19T01:43:28.970Z,10.34
2023-04-19T01:45:58.326Z,10.32
2023-04-19T01:48:24.901Z,10.29
2023-04-19T01:50:51.628Z,10.32
2023-04-19T01:53:20.989Z,10.36
2023-04-19T01:55:47.873Z,10.32
2023-04-19T01:58:14.574Z,10.28
2023-04-19T02:00:41.159Z,10.26
2023-04-19T02:03:07.851Z,10.27
2023-04-19T02:05:35.871Z,10.21
2023-04-19T02:08:02.624Z,10.25
2023-04-19T02:10:32.108Z,10.24
2023-04-19T02:12:58.820Z,10.17
2023-04-19T02:15:25.562Z,10.14
2023-04-19T02:17:52.849Z,10.20
2023-04-19T02:20:19.474Z,10.18
2023-04-19T02:22:46.319Z,10.12
2023-04-19T02:25:13.009Z,10.18
2023-04-19T02:27:39.494Z,10.18
2023-04-19T02:30:06.836Z,10.21
2023-04-19T02:32:33.606Z,10.26
2023-04-19T02:35:00.214Z,10.25
2023-04-19T02:37:26.995Z,10.23
2023-04-19T02:39:53.711Z,10.28
2023-04-19T02:42:20.331Z,10.22
2023-04-19T02:44:48.632Z,10.25
2023-04-19T02:47:15.356Z,10.29
2023-04-19T02:49:41.920Z,10.29
2023-04-19T02:52:08.821Z,10.29
2023-04-19T02:54:35.586Z,10.33
2023-04-19T02:57:02.277Z,10.29
2023-04-19T02:59:28.802Z,10.31
2023-04-19T03:01:55.423Z,10.33
2023-04-19T03:04:22.011Z,10.31
2023-04-19T03:06:48.605Z,10.30
2023-04-19T03:09:15.101Z,10.21
2023-04-19T03:11:41.599Z,10.22
2023-04-19T03:14:08.220Z,10.26
2023-04-19T03:16:34.910Z,10.26
2023-04-19T03:19:01.420Z,10.20
2023-04-19T03:21:27.990Z,10.21
2023-04-19T03:23:55.525Z,10.23
2023-04-19T03:26:22.145Z,10.21
2023-04-19T03:28:51.061Z,10.16
2023-04-19T03:31:17.671Z,10.15
2023-04-19T03:33:47.084Z,10.14
2023-04-19T03:36:13.605Z,10.10
2023-04-19T03:38:40.170Z,10.10
2023-04-19T03:41:18.490Z,10.01
2023-04-19T03:43:45.075Z,9.98
2023-04-19T03:46:11.706Z,9.94
2023-04-19T03:48:38.281Z,9.94
2023-04-19T03:51:04.897Z,9.88
2023-04-19T03:53:31.436Z,9.83
2023-04-19T03:55:58.005Z,9.81
2023-04-19T03:58:24.565Z,9.84
2023-04-19T04:00:51.284Z,9.72
2023-04-19T04:03:18.060Z,9.70
2023-04-19T04:05:44.714Z,9.75
2023-04-19T04:08:11.273Z,9.72
2023-04-19T04:10:37.842Z,9.74
2023-04-19T04:13:10.189Z,9.77
2023-04-19T04:15:36.712Z,9.79
2023-04-19T04:18:03.652Z,9.83
2023-04-19T04:20:30.280Z,9.83
2023-04-19T04:22:56.843Z,9.82
2023-04-19T04:25:23.546Z,9.82
2023-04-19T04:27:52.865Z,9.82
2023-04-19T04:30:19.558Z,9.87
2023-04-19T04:32:47.387Z,9.87
2023-04-19T04:35:14.172Z,9.94
2023-04-19T04:37:40.672Z,9.96
2023-04-19T04:40:07.733Z,10.03
2023-04-19T04:42:34.287Z,10.08
2023-04-19T04:45:00.871Z,10.07
2023-04-19T04:47:34.626Z,10.26
2023-04-19T04:50:01.218Z,10.28
2023-04-19T04:52:28.167Z,10.24
2023-04-19T04:54:57.357Z,10.27
2023-04-19T04:57:23.912Z,10.26
2023-04-19T04:59:50.527Z,10.29
2023-04-19T05:02:17.435Z,10.28
2023-04-19T05:04:44.075Z,10.32
2023-04-19T05:07:10.696Z,10.39
2023-04-19T05:09:37.264Z,10.41
2023-04-19T05:12:04.165Z,10.52
2023-04-19T05:14:30.721Z,10.49
2023-04-19T05:16:57.422Z,10.65
2023-04-19T05:19:23.946Z,10.67
2023-04-19T05:21:50.473Z,10.78
2023-04-19T05:24:17.289Z,10.85
2023-04-19T10:15:49.404Z,21.88
2023-04-19T10:18:18.628Z,21.84
2023-04-19T10:20:55.346Z,23.10
2023-04-19T10:23:23.059Z,23.88
2023-04-19T10:25:56.442Z,24.07
2023-04-19T10:28:23.478Z,23.97
2023-04-19T10:31:00.745Z,24.22
2023-04-19T10:33:38.295Z,23.87
2023-04-19T10:36:09.511Z,24.41
2023-04-19T10:38:44.847Z,24.24
2023-04-19T10:41:13.579Z,23.99
2023-04-19T10:44:08.778Z,24.58
2023-04-19T10:46:35.375Z,25.37
2023-04-19T10:49:04.178Z,24.11
2023-04-19T10:51:38.856Z,24.56
2023-04-19T10:54:28.712Z,25.27
2023-04-19T10:56:59.572Z,25.60
2023-04-19T10:59:27.431Z,25.66
2023-04-19T11:01:59.535Z,25.91
2023-04-19T11:04:32.625Z,25.01
2023-04-19T11:07:03.612Z,24.59
2023-04-19T11:09:34.304Z,24.68
2023-04-19T11:12:06.218Z,24.08
2023-04-19T11:14:36.001Z,24.73
2023-04-19T11:17:05.010Z,24.73
2023-04-19T11:19:31.691Z,23.74
2023-04-19T11:21:59.536Z,23.35
2023-04-19T11:24:26.117Z,22.24
2023-04-19T11:26:55.333Z,22.40
2023-04-19T11:29:22.327Z,21.85
2023-04-19T11:31:49.089Z,21.72
2023-04-19T11:34:15.861Z,21.38
2023-04-19T11:36:50.035Z,21.10
2023-04-19T11:39:16.636Z,20.59
2023-04-19T11:41:43.262Z,21.02
2023-04-19T11:44:20.082Z,21.34
2023-04-19T11:47:04.527Z,21.06
2023-04-19T11:49:33.313Z,20.70
2023-04-19T11:52:04.681Z,20.44
2023-04-19T11:54:33.217Z,20.48
2023-04-19T11:57:04.966Z,20.42
2023-04-19T11:59:36.252Z,20.76
2023-04-19T12:02:12.928Z,20.82
2023-04-19T12:04:40.353Z,20.73
2023-04-19T12:07:07.212Z,20.20
2023-04-19T12:09:35.602Z,19.87
2023-04-19T12:12:02.641Z,19.75
2023-04-19T12:14:30.273Z,19.87
2023-04-19T12:17:10.445Z,19.83
2023-04-19T12:19:44.510Z,19.49
2023-04-19T12:22:19.467Z,19.29
2023-04-19T12:24:46.821Z,19.12
2023-04-19T12:27:17.255Z,19.27
2023-04-19T12:29:43.921Z,19.10
2023-04-19T12:32:12.455Z,19.16
2023-04-19T12:34:39.038Z,19.24
2023-04-19T12:37:13.582Z,19.15
2023-04-19T12:39:41.028Z,19.24
2023-04-19T12:42:20.098Z,19.49
2023-04-19T12:44:46.706Z,19.95
2023-04-19T12:47:13.324Z,19.80
2023-04-19T12:49:40.016Z,19.37
2023-04-19T12:52:07.134Z,19.46
2023-04-19T12:54:33.628Z,19.33
2023-04-19T12:57:01.590Z,19.27
2023-04-19T12:59:29.376Z,19.28
2023-04-19T13:01:56.043Z,18.78
2023-04-19T13:04:23.324Z,18.55
2023-04-19T13:06:50.342Z,19.29
2023-04-19T13:09:17.192Z,19.60
2023-04-19T13:11:43.802Z,19.89
2023-04-19T13:14:10.471Z,19.54
2023-04-19T13:16:37.106Z,19.30
2023-04-19T13:19:03.732Z,18.87
2023-04-19T13:21:30.343Z,18.71
2023-04-19T13:23:59.928Z,18.32
2023-04-19T13:26:26.532Z,18.14
2023-04-19T13:28:53.340Z,18.29
2023-04-19T13:31:19.907Z,18.28
2023-04-19T13:33:46.505Z,18.18
2023-04-19T13:36:13.099Z,18.36
2023-04-19T13:38:39.638Z,18.69
2023-04-19T13:41:06.399Z,18.62
2023-04-19T13:43:33.050Z,18.50
2023-04-19T13:45:59.531Z,18.55
2023-04-19T13:48:26.231Z,18.11
2023-04-19T13:50:52.870Z,18.04
2023-04-19T13:53:19.485Z,17.95
2023-04-19T13:55:46.034Z,17.74
2023-04-19T13:58:12.608Z,17.46
2023-04-19T14:00:39.426Z,17.29
2023-04-19T14:03:06.356Z,17.30
2023-04-19T14:05:33.176Z,17.16
2023-04-19T14:07:59.985Z,17.20
2023-04-19T14:10:26.533Z,17.28
2023-04-19T14:12:53.341Z,17.27
2023-04-19T14:15:20.828Z,17.15
2023-04-19T14:17:47.469Z,17.16
2023-04-19T14:20:14.303Z,17.21
2023-04-19T14:22:40.845Z,17.26
2023-04-19T14:25:07.849Z,17.36
2023-04-19T14:27:34.677Z,17.33
2023-04-19T14:30:01.188Z,17.29
2023-04-19T14:32:27.987Z,17.16
2023-04-19T14:34:55.150Z,17.02
2023-04-19T14:37:22.756Z,17.02
2023-04-19T14:39:49.749Z,16.94
2023-04-19T14:42:16.622Z,17.00
2023-04-19T14:44:43.189Z,16.94
2023-04-19T14:47:09.985Z,16.94
2023-04-19T14:49:36.584Z,16.95
2023-04-19T14:52:04.371Z,16.93
2023-04-19T14:54:31.016Z,16.96
2023-04-19T14:56:57.824Z,16.97
2023-04-19T14:59:24.390Z,16.81
2023-04-19T15:01:51.202Z,16.82
2023-04-19T15:04:18.016Z,16.70
2023-04-19T15:06:44.748Z,16.64
2023-04-19T15:09:11.392Z,16.60
2023-04-19T15:11:38.010Z,16.50
2023-04-19T15:14:04.725Z,16.57
2023-04-19T15:16:31.389Z,16.51
2023-04-19T15:18:58.016Z,16.58
2023-04-19T15:21:25.031Z,16.62
2023-04-19T15:23:51.810Z,16.70
2023-04-19T15:26:18.589Z,16.56
2023-04-19T15:28:45.368Z,16.62
2023-04-19T15:31:12.150Z,16.73
2023-04-19T15:33:38.911Z,16.69
2023-04-19T15:36:05.766Z,16.80
2023-04-19T15:38:32.580Z,16.78
2023-04-19T15:41:00.020Z,16.69
2023-04-19T15:43:26.757Z,16.69
2023-04-19T15:45:53.756Z,16.71
2023-04-19T15:48:20.556Z,16.74
2023-04-19T15:50:47.897Z,16.66
2023-04-19T15:53:14.667Z,16.62
2023-04-19T15:55:41.272Z,16.52
2023-04-19T15:58:08.092Z,16.48
2023-04-19T16:00:34.788Z,16.52
2023-04-19T16:03:01.547Z,16.47
2023-04-19T16:05:28.607Z,16.52
2023-04-19T16:08:05.408Z,16.53
2023-04-19T16:10:32.102Z,16.58
2023-04-19T16:12:58.791Z,16.58
2023-04-19T16:15:25.510Z,16.59
2023-04-19T16:17:52.470Z,16.64
2023-04-19T16:20:19.384Z,16.68
2023-04-19T16:22:46.350Z,16.66
2023-04-19T16:25:13.532Z,16.61
2023-04-19T16:27:44.765Z,16.50
2023-04-19T16:30:12.882Z,16.48
2023-04-19T16:32:40.679Z,16.42
2023-04-19T16:35:07.790Z,16.33
2023-04-19T16:37:34.881Z,16.29
2023-04-19T16:40:09.659Z,16.23
2023-04-19T16:42:38.154Z,16.28
2023-04-19T16:45:05.731Z,16.25
2023-04-19T16:47:32.622Z,16.21
2023-04-19T16:50:00.123Z,16.13
2023-04-19T16:52:28.270Z,16.05
2023-04-19T16:54:54.797Z,15.91
2023-04-19T16:57:23.291Z,15.84
2023-04-19T16:59:50.243Z,15.70
2023-04-19T17:02:17.096Z,15.63
2023-04-19T17:04:44.112Z,15.70
2023-04-19T17:07:11.452Z,15.64
2023-04-19T17:09:38.222Z,15.65
2023-04-19T17:12:05.327Z,15.57
2023-04-19T17:14:34.748Z,15.63
2023-04-19T17:17:01.851Z,15.60
2023-04-19T17:19:28.565Z,15.51
2023-04-19T17:21:55.218Z,15.50
2023-04-19T17:24:22.317Z,15.41
2023-04-19T17:26:49.033Z,15.38
2023-04-19T17:29:15.772Z,15.32
2023-04-19T17:31:42.587Z,15.28
2023-04-19T17:34:09.137Z,15.24
2023-04-19T17:36:35.722Z,15.18
2023-04-19T17:39:02.253Z,15.07
2023-04-19T17:41:28.791Z,15.01
2023-04-19T17:43:55.414Z,14.96
2023-04-19T17:46:22.067Z,14.94
2023-04-19T17:48:48.818Z,14.90
2023-04-19T17:51:15.549Z,14.81
2023-04-19T17:53:42.372Z,14.75
2023-04-19T17:56:08.903Z,14.72
2023-04-19T17:58:35.532Z,14.67
2023-04-19T18:01:02.141Z,14.60
2023-04-19T18:03:29.095Z,14.55
2023-04-19T18:05:55.981Z,14.55
2023-04-19T18:08:22.528Z,14.43
2023-04-19T18:10:49.092Z,14.45
2023-04-19T18:13:15.774Z,14.43
2023-04-19T18:15:42.378Z,14.39
2023-04-19T18:18:09.121Z,14.36
2023-04-19T18:20:35.724Z,14.35
2023-04-19T18:23:02.369Z,14.32
2023-04-19T18:25:29.347Z,14.35
2023-04-19T18:27:55.850Z,14.33
2023-04-19T18:30:22.472Z,14.34
2023-04-19T18:32:49.133Z,14.32
2023-04-19T18:35:15.715Z,14.30
2023-04-19T18:37:42.227Z,14.28
2023-04-19T18:40:09.362Z,14.26
2023-04-19T18:42:36.022Z,14.15
2023-04-19T18:45:04.083Z,14.10
2023-04-19T18:47:30.976Z,14.01
2023-04-19T18:50:05.328Z,13.99
2023-04-19T18:52:34.844Z,13.98
2023-04-19T18:55:01.640Z,13.93
2023-04-19T18:57:28.291Z,13.92
2023-04-19T18:59:57.962Z,13.92
2023-04-19T19:02:25.607Z,13.91
2023-04-19T19:04:58.379Z,13.91
2023-04-19T19:07:36.284Z,13.88
2023-04-19T19:10:16.978Z,13.88
2023-04-19T19:12:45.668Z,13.86
2023-04-19T19:15:13.135Z,13.85
2023-04-19T19:17:39.804Z,13.85
2023-04-19T19:20:07.253Z,13.89
2023-04-19T19:22:34.772Z,13.95
2023-04-19T19:25:01.552Z,13.97
2023-04-19T19:27:28.156Z,13.93
2023-04-19T19:29:54.982Z,13.94
2023-04-19T19:32:21.771Z,13.87
2023-04-19T19:37:18.120Z,13.91
2023-04-19T19:39:45.633Z,13.88
2023-04-19T19:42:16.106Z,13.92
2023-04-19T19:44:42.922Z,13.86
2023-04-19T19:47:10.776Z,13.89
2023-04-19T19:52:07.462Z,13.81
2023-04-19T19:54:34.066Z,13.80
2023-04-19T19:57:52.969Z,13.77
2023-04-19T19:59:52.641Z,13.80
2023-04-19T20:02:22.578Z,13.70
2023-04-19T20:04:49.617Z,13.69
2023-04-19T20:09:45.995Z,13.61
2023-04-19T20:12:12.777Z,13.66
2023-04-19T20:14:39.342Z,13.59
2023-04-19T20:17:06.595Z,13.57
2023-04-19T20:19:33.204Z,13.48
2023-04-19T20:22:00.049Z,13.40
2023-04-19T20:24:26.598Z,13.35
2023-04-19T20:26:53.200Z,13.34
2023-04-19T20:29:19.754Z,13.31
2023-04-19T20:31:46.413Z,13.31
2023-04-19T20:34:13.120Z,13.25
2023-04-19T20:36:39.918Z,13.22
2023-04-19T20:39:06.738Z,13.20
2023-04-19T20:41:33.317Z,13.19
2023-04-19T20:43:59.979Z,13.21
2023-04-19T20:46:26.982Z,13.12
2023-04-19T20:48:53.560Z,13.08
2023-04-19T20:51:20.123Z,13.01
2023-04-19T20:53:46.687Z,12.97
2023-04-19T20:56:13.378Z,12.95
2023-04-19T20:58:40.028Z,12.95
2023-04-19T21:01:06.732Z,12.83
2023-04-19T21:03:33.618Z,12.86
2023-04-19T21:06:00.337Z,12.83
2023-04-19T21:08:26.898Z,12.82
2023-04-19T21:10:53.588Z,12.79
2023-04-19T21:13:20.121Z,12.71
2023-04-19T21:15:46.731Z,12.66
2023-04-19T21:18:13.398Z,12.68
2023-04-19T21:20:40.059Z,12.62
2023-04-19T21:23:06.883Z,12.58
2023-04-19T21:25:33.476Z,12.53
2023-04-19T21:28:00.183Z,12.49
2023-04-19T21:30:26.886Z,12.44
2023-04-19T21:32:53.460Z,12.43
2023-04-19T21:35:20.021Z,12.40
2023-04-19T21:37:46.825Z,12.42
2023-04-19T21:40:13.604Z,12.40
2023-04-19T21:42:40.275Z,12.32
2023-04-19T21:45:07.448Z,12.24
2023-04-19T21:47:34.439Z,12.29
2023-04-19T21:50:01.045Z,12.24
2023-04-19T21:52:27.586Z,12.19
2023-04-19T21:54:54.195Z,12.12
2023-04-19T21:57:20.703Z,12.08
2023-04-19T21:59:47.480Z,12.06
2023-04-19T22:02:14.131Z,12.08
2023-04-19T22:04:40.648Z,12.07
2023-04-19T22:07:07.229Z,12.05
2023-04-19T22:09:33.779Z,11.92
2023-04-19T22:12:00.785Z,11.96
2023-04-19T22:14:27.437Z,11.86
2023-04-19T22:16:54.213Z,11.82
2023-04-19T22:19:20.978Z,11.82
2023-04-19T22:21:47.595Z,11.82
2023-04-19T22:24:14.164Z,11.83
2023-04-19T22:26:40.798Z,11.82
2023-04-19T22:29:07.371Z,11.80
2023-04-19T22:31:34.062Z,11.82
2023-04-19T22:34:00.656Z,11.75
2023-04-19T22:36:27.258Z,11.71
2023-04-19T22:38:54.166Z,11.68
2023-04-19T22:41:20.836Z,11.58
2023-04-19T22:43:47.465Z,11.55
2023-04-19T22:46:14.153Z,11.48
2023-04-19T22:48:40.769Z,11.37
2023-04-19T22:51:08.538Z,11.37
2023-04-19T22:53:36.316Z,11.32
2023-04-19T22:56:02.916Z,11.28
2023-04-19T22:58:29.434Z,11.32
2023-04-19T23:00:56.082Z,11.24
2023-04-19T23:03:22.800Z,11.18
2023-04-19T23:05:49.369Z,11.14
2023-04-19T23:08:15.925Z,11.10
2023-04-19T23:10:42.560Z,11.08
2023-04-19T23:13:09.235Z,11.02
2023-04-19T23:15:35.945Z,10.96
2023-04-19T23:18:02.686Z,10.95
2023-04-19T23:20:29.978Z,10.95
2023-04-19T23:22:57.029Z,10.92
2023-04-19T23:25:24.470Z,10.93
2023-04-19T23:27:51.218Z,10.94
2023-04-19T23:30:18.569Z,10.87
2023-04-19T23:32:45.488Z,10.87
2023-04-19T23:35:12.199Z,10.85
2023-04-19T23:37:38.874Z,10.82
2023-04-19T23:40:06.040Z,10.84
2023-04-19T23:42:32.662Z,10.74
2023-04-19T23:44:59.489Z,10.70
2023-04-19T23:47:26.008Z,10.67
2023-04-19T23:49:52.553Z,10.64
2023-04-19T23:52:19.170Z,10.64
2023-04-19T23:54:45.692Z,10.64
2023-04-19T23:57:12.412Z,10.62
2023-04-19T23:59:38.980Z,10.55
